Terminal Aerodrome Forecast
Issued by NWS Blacksburg, VA

Home | Current Version | Previous Version | Text Only | Print | Product List | Glossary On
Versions: 1 2 3 4 5 6 7 8 9 10 11 12 13 14 15 16 17 18 19 20 21 22 23 24 25
000
FTUS41 KRNK 251139
TAFDAN
TAF
KDAN 251139Z 2512/2612 07006KT P6SM OVC090
     FM251400 07006KT P6SM -RA OVC060
     FM251900 07006KT P6SM -RA OVC035
     FM252300 06007KT 5SM -RA BR SCT009 OVC015
     FM260400 05007KT 4SM -RADZ BR OVC007=

USA.gov is the U.S. government's official web portal to all federal, state and local government web resources and services.